Home > Products > Valid Products > TAF

000
FTUS44 KBMX 241720
TAFTOI
TAF
KTOI 241720Z 2418/2518 15003KT P6SM FEW250
     FM250000 14002KT P6SM SKC=



000
FTUS44 KBMX 241720
TAFMGM
TAF
KMGM 241720Z 2418/2518 16003KT P6SM FEW250
     FM250600 00000KT P6SM FEW250
     FM251500 14005KT P6SM SKC=



000
FTUS44 KBMX 241720
TAFANB
TAF
KANB 241720Z 2418/2518 23004KT P6SM FEW250
     FM250300 22004KT P6SM SCT250
     FM251200 08002KT 5SM HZ SKC=



000
FTUS44 KBMX 241720
TAFTCL
TAF
KTCL 241720Z 2418/2518 21005KT P6SM FEW250
     FM250600 18004KT 4SM BR BKN250=



000
FTUS44 KBMX 241720
TAFBHM
TAF
KBHM 241720Z 2418/2518 22006KT P6SM FEW250
     FM250000 18006KT P6SM SCT250
     FM250900 19002KT P6SM BKN250=



000
FTUS44 KBMX 241720
TAFEET
TAF
KEET 241720Z 2418/2518 20004KT P6SM FEW250
     FM250000 18006KT P6SM SCT250
     FM250900 19002KT P6SM BKN250=



000
FTUS44 KBMX 241121
TAFMGM
TAF
KMGM 241121Z 2412/2512 16003KT P6SM FEW250=



000
FTUS44 KBMX 241121
TAFTOI
TAF
KTOI 241121Z 2412/2512 15003KT P6SM FEW250=



000
FTUS44 KBMX 241121
TAFEET
TAF
KEET 241121Z 2412/2512 20004KT P6SM FEW250=



000
FTUS44 KBMX 241121
TAFANB
TAF
KANB 241121Z 2412/2512 23004KT P6SM FEW250=



000
FTUS44 KBMX 241121
TAFBHM
TAF
KBHM 241121Z 2412/2512 22006KT P6SM FEW250=



000
FTUS44 KBMX 241121
TAFTCL
TAF
KTCL 241121Z 2412/2512 21005KT P6SM FEW250
      TEMPO 2412/2413 4SM BR=



000
FTUS44 KBMX 231724
TAFEET
TAF
KEET 231724Z 2318/2418 VRB05KT P6SM SKC=



000
FTUS44 KBMX 231724
TAFBHM
TAF
KBHM 231724Z 2318/2418 VRB05KT P6SM SKC=



000
FTUS44 KBMX 231724
TAFTCL
TAF
KTCL 231724Z 2318/2418 VRB05KT P6SM SKC=



000
FTUS44 KBMX 231724
TAFANB
TAF
KANB 231724Z 2318/2418 VRB05KT P6SM SKC=



000
FTUS44 KBMX 231724
TAFTOI
TAF
KTOI 231724Z 2318/2418 VRB05KT P6SM SKC=



000
FTUS44 KBMX 231724
TAFMGM
TAF
KMGM 231724Z 2318/2418 VRB05KT P6SM SKC=



000
FTUS44 KBMX 231120
TAFANB
TAF
KANB 231120Z 2312/2412 33002KT P6SM SKC
     FM231700 33008KT P6SM SKC=



000
FTUS44 KBMX 231120
TAFTOI
TAF
KTOI 231120Z 2312/2412 00000KT P6SM SKC
     FM231700 33006KT P6SM SKC=



000
FTUS44 KBMX 231120
TAFEET
TAF
KEET 231120Z 2312/2412 00000KT P6SM SKC
     FM231700 33006KT P6SM SKC=



000
FTUS44 KBMX 231120
TAFBHM
TAF
KBHM 231120Z 2312/2412 36002KT P6SM SKC
     FM231700 33008KT P6SM SKC=



000
FTUS44 KBMX 231120
TAFTCL
TAF
KTCL 231120Z 2312/2412 00000KT P6SM SKC
     FM231700 33006KT P6SM SKC=



000
FTUS44 KBMX 231120
TAFMGM
TAF
KMGM 231120Z 2312/2412 32002KT P6SM SKC
     FM231700 33006KT P6SM SKC=



000
FTUS44 KBMX 230520
TAFEET
TAF
KEET 230520Z 2306/2406 00000KT P6SM SKC
     FM231700 33006KT P6SM SKC=



000
FTUS44 KBMX 230520
TAFBHM
TAF
KBHM 230520Z 2306/2406 36002KT P6SM SKC
     FM231700 33008KT P6SM SKC=



000
FTUS44 KBMX 230520
TAFMGM
TAF
KMGM 230520Z 2306/2406 32002KT P6SM SKC
     FM231700 33006KT P6SM SKC=



000
FTUS44 KBMX 230520
TAFTCL
TAF
KTCL 230520Z 2306/2406 00000KT P6SM SKC
     FM231700 33006KT P6SM SKC=



000
FTUS44 KBMX 230520
TAFANB
TAF
KANB 230520Z 2306/2406 33002KT P6SM SKC
     FM231700 33008KT P6SM SKC=



000
FTUS44 KBMX 230520
TAFTOI
TAF
KTOI 230520Z 2306/2406 00000KT P6SM SKC
     FM231700 33006KT P6SM SKC=



    US Dept of Commerce
    National Oceanic and Atmospheric Administration
    National Weather Service
    1325 East West Highway
    Silver Spring, MD 20910
    Page Author: NWS Internet Services Team
Disclaimer
Information Quality
Credits
Glossary
Privacy Policy
Freedom of Information Act (FOIA)
About Us
Career Opportunities